createdAt,value
2018-07-12T00:00:48.789Z,101393.96
2018-07-12T00:03:14.804Z,101386.37
2018-07-12T00:05:40.841Z,101386.02
2018-07-12T00:08:06.873Z,101387.81
2018-07-12T00:10:33.020Z,101385.27
2018-07-12T00:12:59.044Z,101386.21
2018-07-12T00:15:25.072Z,101374.80
2018-07-12T00:17:51.085Z,101375.58
2018-07-12T00:20:17.114Z,101374.24
2018-07-12T00:22:43.149Z,101374.11
2018-07-12T00:25:09.191Z,101373.72
2018-07-12T00:27:35.221Z,101368.91
2018-07-12T00:30:01.265Z,101370.62
2018-07-12T00:32:27.294Z,101365.55
2018-07-12T00:34:53.393Z,101365.80
2018-07-12T00:37:19.685Z,101366.42
2018-07-12T00:39:45.744Z,101357.66
2018-07-12T00:42:11.765Z,101356.75
2018-07-12T00:44:37.793Z,101361.08
2018-07-12T00:47:03.813Z,101356.63
2018-07-12T00:49:29.836Z,101364.77
2018-07-12T00:51:55.860Z,101363.69
2018-07-12T00:54:21.929Z,101364.63
2018-07-12T00:56:47.996Z,101367.17
2018-07-12T00:59:14.006Z,101365.16
2018-07-12T01:01:40.065Z,101370.88
2018-07-12T01:04:06.112Z,101369.67
2018-07-12T01:06:32.202Z,101361.52
2018-07-12T01:08:58.244Z,101362.23
2018-07-12T01:11:24.269Z,101362.23
2018-07-12T01:13:50.269Z,101368.27
2018-07-12T01:16:16.297Z,101360.70
2018-07-12T01:18:42.316Z,101365.31
2018-07-12T01:21:08.367Z,101365.19
2018-07-12T01:23:34.381Z,101359.16
2018-07-12T01:26:00.418Z,101364.09
2018-07-12T01:28:26.444Z,101367.12
2018-07-12T01:30:52.480Z,101360.00
2018-07-12T01:33:18.505Z,101361.27
2018-07-12T01:35:44.535Z,101367.06
2018-07-12T01:38:10.564Z,101359.30
2018-07-12T01:40:36.581Z,101355.77
2018-07-12T01:43:02.605Z,101364.08
2018-07-12T01:45:28.636Z,101356.83
2018-07-12T01:47:54.670Z,101356.60
2018-07-12T01:50:20.687Z,101359.44
2018-07-12T01:52:46.700Z,101363.50
2018-07-12T01:55:12.725Z,101360.04
2018-07-12T01:57:38.753Z,101354.36
2018-07-12T02:00:04.770Z,101360.98
2018-07-12T02:02:30.794Z,101357.66
2018-07-12T02:04:56.822Z,101367.06
2018-07-12T02:07:22.865Z,101360.72
2018-07-12T02:09:48.887Z,101360.44
2018-07-12T02:12:14.915Z,101357.88
2018-07-12T02:14:40.928Z,101357.84
2018-07-12T02:17:06.963Z,101359.39
2018-07-12T02:19:32.984Z,101354.05
2018-07-12T02:21:59.008Z,101355.92
2018-07-12T02:24:25.050Z,101352.95
2018-07-12T02:26:51.069Z,101345.37
2018-07-12T02:29:17.084Z,101352.83
2018-07-12T02:31:43.100Z,101346.28
2018-07-12T02:34:09.125Z,101346.34
2018-07-12T02:36:35.151Z,101346.45
2018-07-12T02:39:01.183Z,101339.93
2018-07-12T02:41:27.205Z,101343.88
2018-07-12T02:43:53.225Z,101346.94
2018-07-12T02:46:19.255Z,101344.72
2018-07-12T02:48:45.276Z,101346.98
2018-07-12T02:51:11.306Z,101346.59
2018-07-12T02:53:37.326Z,101345.27
2018-07-12T02:56:03.463Z,101342.05
2018-07-12T02:58:29.484Z,101337.66
2018-07-12T03:00:55.508Z,101338.59
2018-07-12T03:03:21.525Z,101341.72
2018-07-12T03:05:47.540Z,101347.50
2018-07-12T03:08:13.590Z,101343.11
2018-07-12T03:10:39.585Z,101346.34
2018-07-12T03:13:05.611Z,101348.67
2018-07-12T03:15:31.635Z,101350.94
2018-07-12T03:17:57.647Z,101349.06
2018-07-12T03:20:23.654Z,101351.17
2018-07-12T03:22:49.672Z,101359.28
2018-07-12T03:25:15.693Z,101354.97
2018-07-12T03:27:41.708Z,101350.58
2018-07-12T03:30:07.737Z,101352.90
2018-07-12T03:32:33.773Z,101352.47
2018-07-12T03:34:59.803Z,101354.73
2018-07-12T03:37:25.837Z,101350.91
2018-07-12T03:39:51.878Z,101358.39
2018-07-12T03:42:17.917Z,101350.97
2018-07-12T03:44:43.954Z,101360.86
2018-07-12T03:47:09.993Z,101353.91
2018-07-12T03:49:36.022Z,101361.63
2018-07-12T03:52:02.065Z,101355.30
2018-07-12T03:54:28.093Z,101359.19
2018-07-12T03:56:54.152Z,101359.28
2018-07-12T03:59:20.193Z,101361.01
2018-07-12T04:01:46.230Z,101359.16
2018-07-12T04:04:12.253Z,101363.45
2018-07-12T04:06:38.296Z,101358.94
2018-07-12T04:09:04.923Z,101364.61
2018-07-12T04:11:30.965Z,101363.81
2018-07-12T04:13:57.004Z,101358.75
2018-07-12T04:16:23.036Z,101350.75
2018-07-12T04:18:49.053Z,101357.52
2018-07-12T04:21:15.087Z,101358.09
2018-07-12T04:23:41.104Z,101355.64
2018-07-12T04:26:07.132Z,101354.39
2018-07-12T04:28:33.163Z,101335.51
2018-07-12T04:30:59.196Z,101348.50
2018-07-12T04:33:25.234Z,101349.59
2018-07-12T04:35:51.256Z,101347.16
2018-07-12T04:38:17.285Z,101343.81
2018-07-12T04:40:43.304Z,101343.04
2018-07-12T04:43:09.336Z,101344.34
2018-07-12T04:45:35.356Z,101345.81
2018-07-12T04:48:01.402Z,101344.58
2018-07-12T04:50:27.428Z,101349.53
2018-07-12T04:52:53.454Z,101347.59
2018-07-12T04:55:19.473Z,101347.33
2018-07-12T04:57:45.528Z,101345.59
2018-07-12T05:00:11.561Z,101348.25
2018-07-12T05:02:37.589Z,101355.27
2018-07-12T05:05:03.618Z,101354.25
2018-07-12T05:07:29.653Z,101359.55
2018-07-12T05:09:55.686Z,101359.10
2018-07-12T05:12:21.725Z,101359.02
2018-07-12T05:14:47.761Z,101360.95
2018-07-12T05:17:13.808Z,101359.55
2018-07-12T05:19:39.845Z,101360.75
2018-07-12T05:22:05.886Z,101362.37
2018-07-12T05:24:31.915Z,101357.72
2018-07-12T05:26:57.953Z,101364.11
2018-07-12T05:29:23.992Z,101368.70
2018-07-12T05:31:50.044Z,101367.48
2018-07-12T05:34:16.060Z,101360.30
2018-07-12T05:36:54.735Z,101364.23
2018-07-12T05:39:21.688Z,101360.60
2018-07-12T05:41:48.704Z,101365.48
2018-07-12T05:44:16.181Z,101368.07
2018-07-12T05:46:43.238Z,101368.07
2018-07-12T05:49:10.133Z,101369.02
2018-07-12T05:51:37.037Z,101374.93
2018-07-12T05:54:03.965Z,101379.17
2018-07-12T05:56:30.869Z,101373.48
2018-07-12T05:58:57.804Z,101374.45
2018-07-12T06:01:36.241Z,101378.20
2018-07-12T06:04:03.185Z,101375.94
2018-07-12T06:06:30.093Z,101382.31
2018-07-12T06:08:57.031Z,101377.73
2018-07-12T06:11:23.949Z,101383.02
2018-07-12T06:13:50.873Z,101380.22
2018-07-12T06:16:17.796Z,101379.34
2018-07-12T06:18:44.716Z,101381.85
2018-07-12T06:21:11.648Z,101384.86
2018-07-12T06:23:38.557Z,101385.58
2018-07-12T06:26:05.497Z,101392.20
2018-07-12T06:28:32.407Z,101395.14
2018-07-12T06:30:59.328Z,101389.09
2018-07-12T06:33:26.261Z,101398.75
2018-07-12T06:35:53.177Z,101397.26
2018-07-12T06:38:20.104Z,101392.50
2018-07-12T06:40:47.005Z,101388.01
2018-07-12T06:43:13.937Z,101403.69
2018-07-12T06:45:40.849Z,101395.63
2018-07-12T06:48:07.797Z,101402.63
2018-07-12T06:50:34.710Z,101400.66
2018-07-12T06:53:01.649Z,101410.36
2018-07-12T06:55:28.559Z,101405.55
2018-07-12T07:00:28.209Z,101407.03
2018-07-12T07:02:55.124Z,101402.71
2018-07-12T07:05:22.065Z,101397.23
2018-07-12T07:07:48.986Z,101400.73
2018-07-12T07:10:15.907Z,101395.63
2018-07-12T07:12:42.845Z,101408.06
2018-07-12T07:15:09.748Z,101394.09
2018-07-12T07:17:36.649Z,101398.41
2018-07-12T07:20:03.577Z,101404.22
2018-07-12T07:22:30.482Z,101401.55
2018-07-12T07:24:57.405Z,101403.31
2018-07-12T07:27:24.313Z,101404.56
2018-07-12T07:29:51.232Z,101403.13
2018-07-12T07:32:18.347Z,101407.25
2018-07-12T07:34:45.256Z,101398.82
2018-07-12T07:37:12.165Z,101394.54
2018-07-12T07:39:39.084Z,101393.13
2018-07-12T07:42:06.000Z,101393.71
2018-07-12T07:44:32.934Z,101403.61
2018-07-12T07:46:59.861Z,101391.94
2018-07-12T07:49:26.791Z,101385.34
2018-07-12T07:51:53.710Z,101383.27
2018-07-12T07:54:20.628Z,101388.13
2018-07-12T07:56:47.544Z,101384.45
2018-07-12T07:59:14.488Z,101388.83
2018-07-12T08:01:41.422Z,101380.93
2018-07-12T08:04:08.348Z,101381.64
2018-07-12T08:06:35.254Z,101374.05
2018-07-12T08:09:02.292Z,101381.23
2018-07-12T08:11:29.185Z,101380.03
2018-07-12T08:13:56.082Z,101384.05
2018-07-12T08:16:23.023Z,101377.36
2018-07-12T08:18:49.893Z,101374.68
2018-07-12T08:21:16.794Z,101374.88
2018-07-12T08:23:44.816Z,101375.77
2018-07-12T08:26:11.736Z,101373.13
2018-07-12T08:28:38.628Z,101373.18
2018-07-12T08:31:05.582Z,101372.69
2018-07-12T08:33:32.476Z,101363.81
2018-07-12T08:35:59.369Z,101374.98
2018-07-12T08:38:26.281Z,101369.89
2018-07-12T08:40:53.191Z,101369.67
2018-07-12T08:43:20.093Z,101368.78
2018-07-12T08:45:47.014Z,101374.29
2018-07-12T08:48:13.934Z,101373.57
2018-07-12T08:50:40.868Z,101366.69
2018-07-12T08:53:08.052Z,101357.89
2018-07-12T08:55:34.893Z,101354.45
2018-07-12T08:58:01.800Z,101356.72
2018-07-12T09:00:28.713Z,101358.92
2018-07-12T09:02:55.606Z,101353.47
2018-07-12T09:05:22.513Z,101354.52
2018-07-12T09:07:49.404Z,101365.71
2018-07-12T09:10:16.292Z,101357.88
2018-07-12T09:12:43.449Z,101356.86
2018-07-12T09:15:10.433Z,101350.98
2018-07-12T09:17:37.333Z,101357.62
2018-07-12T09:20:04.305Z,101354.02
2018-07-12T09:22:31.265Z,101351.39
2018-07-12T09:24:58.193Z,101355.27
2018-07-12T09:27:25.143Z,101350.14
2018-07-12T09:29:52.067Z,101353.19
2018-07-12T09:32:19.228Z,101354.14
2018-07-12T09:34:46.217Z,101351.11
2018-07-12T09:37:13.093Z,101352.91
2018-07-12T09:39:40.044Z,101352.83
2018-07-12T09:42:07.009Z,101339.52
2018-07-12T09:44:33.909Z,101347.14
2018-07-12T09:47:00.820Z,101349.08
2018-07-12T09:49:27.708Z,101352.70
2018-07-12T09:51:54.621Z,101355.92
2018-07-12T09:54:21.542Z,101357.83
2018-07-12T09:57:00.118Z,101349.45
2018-07-12T09:59:27.040Z,101356.92
2018-07-12T10:01:59.616Z,101358.31
2018-07-12T10:04:27.153Z,101358.44
2018-07-12T10:06:59.925Z,101357.78
2018-07-12T10:09:32.662Z,101353.30
2018-07-12T10:12:05.341Z,101355.16
2018-07-12T10:14:38.125Z,101353.41
2018-07-12T10:17:11.213Z,101352.88
2018-07-12T10:19:38.377Z,101347.59
2018-07-12T10:22:05.532Z,101349.78
2018-07-12T10:24:32.436Z,101349.20
2018-07-12T10:26:59.347Z,101349.47
2018-07-12T10:29:26.256Z,101348.69
2018-07-12T10:31:53.160Z,101343.95
2018-07-12T10:34:20.053Z,101352.17
2018-07-12T10:36:46.964Z,101350.30
2018-07-12T10:39:13.868Z,101345.20
2018-07-12T10:41:40.801Z,101337.11
2018-07-12T10:44:07.689Z,101344.31
2018-07-12T10:46:34.593Z,101339.91
2018-07-12T10:49:01.509Z,101345.78
2018-07-12T10:51:28.441Z,101344.52
2018-07-12T10:53:55.353Z,101337.97
2018-07-12T10:56:22.279Z,101335.08
2018-07-12T10:58:49.222Z,101340.26
2018-07-12T11:01:16.149Z,101335.99
2018-07-12T11:03:43.050Z,101333.38
2018-07-12T11:06:09.961Z,101336.77
2018-07-12T11:08:36.875Z,101330.16
2018-07-12T11:11:03.809Z,101333.18
2018-07-12T11:13:42.348Z,101332.88
2018-07-12T11:16:09.266Z,101331.14
2018-07-12T11:18:36.161Z,101345.68
2018-07-12T11:21:03.105Z,101345.08
2018-07-12T11:23:29.992Z,101342.26
2018-07-12T11:25:56.905Z,101336.28
2018-07-12T11:28:23.810Z,101339.31
2018-07-12T11:30:50.740Z,101333.88
2018-07-12T11:33:32.137Z,101331.89
2018-07-12T11:35:59.102Z,101331.25
2018-07-12T11:38:26.004Z,101329.00
2018-07-12T11:40:52.913Z,101339.12
2018-07-12T11:43:19.827Z,101325.27
2018-07-12T11:45:46.736Z,101325.82
2018-07-12T11:48:13.667Z,101330.76
2018-07-12T11:50:40.562Z,101319.91
2018-07-12T11:53:07.493Z,101332.48
2018-07-12T11:55:34.412Z,101328.63
2018-07-12T11:58:01.340Z,101330.53
2018-07-12T12:00:28.241Z,101329.59
2018-07-12T12:02:55.153Z,101334.31
2018-07-12T12:05:22.076Z,101334.25
2018-07-12T12:07:48.989Z,101327.85
2018-07-12T12:10:15.880Z,101322.70
2018-07-12T12:12:42.795Z,101328.84
2018-07-12T12:15:09.704Z,101321.08
2018-07-12T12:17:36.641Z,101321.29
2018-07-12T12:20:03.571Z,101319.97
2018-07-12T12:22:30.484Z,101330.27
2018-07-12T12:24:57.394Z,101325.78
2018-07-12T12:27:24.327Z,101321.21
2018-07-12T12:29:51.232Z,101330.06
2018-07-12T12:32:18.146Z,101324.59
2018-07-12T12:34:45.050Z,101320.62
2018-07-12T12:37:11.978Z,101317.52
2018-07-12T12:39:38.880Z,101324.94
2018-07-12T12:42:05.780Z,101324.33
2018-07-12T12:44:32.677Z,101331.08
2018-07-12T12:46:59.592Z,101324.81
2018-07-12T12:49:26.501Z,101317.62
2018-07-12T12:51:53.565Z,101315.88
2018-07-12T12:54:20.482Z,101315.28
2018-07-12T12:56:47.388Z,101313.09
2018-07-12T12:59:14.729Z,101307.75
2018-07-12T13:01:42.224Z,101310.44
2018-07-12T13:04:09.160Z,101301.69
2018-07-12T13:06:36.048Z,101292.04
2018-07-12T13:09:04.714Z,101293.75
2018-07-12T13:11:31.771Z,101302.64
2018-07-12T13:14:00.068Z,101292.41
2018-07-12T13:16:27.017Z,101301.85
2018-07-12T13:18:53.930Z,101308.77
2018-07-12T13:21:20.829Z,101305.74
2018-07-12T13:23:47.957Z,101300.93
2018-07-12T13:26:14.868Z,101302.98
2018-07-12T13:28:41.782Z,101302.20
2018-07-12T13:31:08.692Z,101302.92
2018-07-12T13:33:35.602Z,101304.36
2018-07-12T13:36:02.503Z,101301.09
2018-07-12T13:38:29.416Z,101303.22
2018-07-12T13:40:56.338Z,101291.42
2018-07-12T13:43:23.316Z,101290.52
2018-07-12T13:45:50.306Z,101300.47
2018-07-12T13:48:17.249Z,101298.78
2018-07-12T13:50:44.164Z,101301.79
2018-07-12T13:53:11.180Z,101297.58
2018-07-12T13:55:38.075Z,101306.54
2018-07-12T13:58:05.072Z,101302.49
2018-07-12T14:00:31.976Z,101294.17
2018-07-12T14:02:58.881Z,101295.24
2018-07-12T14:05:25.795Z,101290.09
2018-07-12T14:07:52.709Z,101288.94
2018-07-12T14:10:19.953Z,101295.17
2018-07-12T14:12:46.863Z,101292.52
2018-07-12T14:15:13.781Z,101307.92
2018-07-12T14:17:40.698Z,101296.67
2018-07-12T14:20:07.622Z,101307.19
2018-07-12T14:22:34.524Z,101302.56
2018-07-12T14:25:01.499Z,101306.92
2018-07-12T14:27:28.449Z,101295.62
2018-07-12T14:29:55.357Z,101297.33
2018-07-12T14:32:22.266Z,101298.37
2018-07-12T14:34:50.044Z,101306.69
2018-07-12T14:37:16.962Z,101302.95
2018-07-12T14:39:43.837Z,101302.38
2018-07-12T14:42:10.769Z,101302.98
2018-07-12T14:44:37.673Z,101297.69
2018-07-12T14:47:04.606Z,101297.50
2018-07-12T14:49:31.462Z,101297.63
2018-07-12T14:51:58.544Z,101289.74
2018-07-12T14:54:25.636Z,101284.80
2018-07-12T14:56:52.976Z,101296.84
2018-07-12T14:59:19.922Z,101288.80
2018-07-12T15:01:46.824Z,101285.38
2018-07-12T15:04:13.748Z,101288.09
2018-07-12T15:06:40.706Z,101285.89
2018-07-12T15:09:08.329Z,101288.45
2018-07-12T15:11:35.217Z,101288.98
2018-07-12T15:14:02.130Z,101291.30
2018-07-12T15:16:29.042Z,101283.53
2018-07-12T15:18:55.983Z,101283.48
2018-07-12T15:21:23.044Z,101291.48
2018-07-12T15:23:49.947Z,101280.25
2018-07-12T15:26:16.890Z,101279.41
2018-07-12T15:28:43.810Z,101291.57
2018-07-12T15:31:10.745Z,101280.38
2018-07-12T15:33:37.669Z,101288.73
2018-07-12T15:36:04.594Z,101282.58
2018-07-12T15:38:31.577Z,101297.50
2018-07-12T15:40:58.688Z,101294.83
2018-07-12T15:43:25.609Z,101293.22
2018-07-12T15:45:52.528Z,101296.81
2018-07-12T15:48:19.457Z,101300.63
2018-07-12T15:50:46.391Z,101299.27
2018-07-12T15:53:13.322Z,101300.39
2018-07-12T15:55:40.236Z,101299.98
2018-07-12T15:58:07.164Z,101304.16
2018-07-12T16:00:34.087Z,101304.55
2018-07-12T16:03:00.996Z,101299.47
2018-07-12T16:05:27.901Z,101300.84
2018-07-12T16:07:54.812Z,101304.02
2018-07-12T16:10:21.721Z,101309.98
2018-07-12T16:12:48.626Z,101308.33
2018-07-12T16:15:15.548Z,101301.81
2018-07-12T16:17:42.486Z,101303.14
2018-07-12T16:20:09.400Z,101302.05
2018-07-12T16:22:36.309Z,101304.37
2018-07-12T16:25:03.317Z,101298.98
2018-07-12T16:27:30.285Z,101299.47
2018-07-12T16:29:57.231Z,101299.66
2018-07-12T16:32:24.135Z,101294.55
2018-07-12T16:34:51.315Z,101299.36
2018-07-12T16:37:18.213Z,101298.37
2018-07-12T16:39:45.149Z,101307.17
2018-07-12T16:42:12.049Z,101301.05
2018-07-12T16:44:39.025Z,101311.16
2018-07-12T16:47:06.140Z,101303.10
2018-07-12T16:49:33.033Z,101312.98
2018-07-12T16:52:00.146Z,101309.22
2018-07-12T16:54:27.060Z,101312.76
2018-07-12T16:56:53.982Z,101314.58
2018-07-12T16:59:21.030Z,101310.82
2018-07-12T17:01:49.310Z,101301.45
2018-07-12T17:04:18.030Z,101309.32
2018-07-12T17:06:45.654Z,101308.08
2018-07-12T17:09:12.649Z,101302.45
2018-07-12T17:11:39.647Z,101305.88
2018-07-12T17:14:06.628Z,101311.33
2018-07-12T17:16:33.728Z,101316.31
2018-07-12T17:19:01.677Z,101310.67
2018-07-12T17:21:28.665Z,101314.84
2018-07-12T17:23:55.759Z,101313.95
2018-07-12T17:26:22.901Z,101309.33
2018-07-12T17:28:50.054Z,101312.55
2018-07-12T17:31:17.032Z,101318.08
2018-07-12T17:33:43.938Z,101319.77
2018-07-12T17:36:10.894Z,101314.25
2018-07-12T17:38:37.825Z,101313.95
2018-07-12T17:41:04.837Z,101323.92
2018-07-12T17:43:31.694Z,101323.58
2018-07-12T17:45:58.614Z,101322.81
2018-07-12T17:48:25.574Z,101332.06
2018-07-12T17:50:52.481Z,101325.96
2018-07-12T17:53:19.396Z,101330.89
2018-07-12T17:55:46.310Z,101334.98
2018-07-12T17:58:13.229Z,101329.98
2018-07-12T18:00:40.168Z,101330.31
2018-07-12T18:03:07.067Z,101337.28
2018-07-12T18:05:34.063Z,101335.25
2018-07-12T18:08:00.899Z,101328.95
2018-07-12T18:10:27.848Z,101338.45
2018-07-12T18:12:54.777Z,101333.63
2018-07-12T18:15:21.684Z,101337.64
2018-07-12T18:17:48.612Z,101334.86
2018-07-12T18:20:15.516Z,101331.20
2018-07-12T18:22:42.437Z,101338.03
2018-07-12T18:25:09.332Z,101337.83
2018-07-12T18:27:36.853Z,101350.20
2018-07-12T18:30:04.221Z,101353.88
2018-07-12T18:32:31.128Z,101353.17
2018-07-12T18:34:58.025Z,101348.48
2018-07-12T18:37:24.945Z,101350.98
2018-07-12T18:39:52.309Z,101361.11
2018-07-12T18:42:19.257Z,101361.29
2018-07-12T18:44:46.162Z,101364.08
2018-07-12T18:47:13.060Z,101367.84
2018-07-12T18:49:39.980Z,101369.08
2018-07-12T18:52:06.920Z,101372.48
2018-07-12T18:54:33.817Z,101378.88
2018-07-12T18:57:00.740Z,101378.89
2018-07-12T18:59:27.652Z,101382.42
2018-07-12T19:01:54.570Z,101385.19
2018-07-12T19:04:21.485Z,101394.77
2018-07-12T19:06:48.404Z,101398.11
2018-07-12T19:09:15.315Z,101397.14
2018-07-12T19:11:42.213Z,101395.02
2018-07-12T19:14:09.157Z,101396.22
2018-07-12T19:16:36.069Z,101400.39
2018-07-12T19:19:03.290Z,101409.23
2018-07-12T19:21:30.200Z,101412.54
2018-07-12T19:23:57.156Z,101416.20
2018-07-12T19:26:24.174Z,101414.73
2018-07-12T19:28:51.034Z,101410.33
2018-07-12T19:31:17.968Z,101424.42
2018-07-12T19:33:44.880Z,101432.28
2018-07-12T19:36:11.802Z,101435.43
2018-07-12T19:38:38.731Z,101440.95
2018-07-12T19:41:05.678Z,101441.02
2018-07-12T19:43:32.584Z,101449.92
2018-07-12T19:45:59.513Z,101449.88
2018-07-12T19:48:26.457Z,101451.11
2018-07-12T19:50:53.373Z,101459.00
2018-07-12T19:53:20.312Z,101455.59
2018-07-12T19:55:47.235Z,101456.42
2018-07-12T19:58:14.217Z,101465.80
2018-07-12T20:00:41.168Z,101457.81
2018-07-12T20:03:08.188Z,101469.65
2018-07-12T20:05:35.108Z,101466.70
2018-07-12T20:08:02.052Z,101472.91
2018-07-12T20:10:29.035Z,101471.67
2018-07-12T20:12:55.976Z,101479.99
2018-07-12T20:15:22.893Z,101472.95
2018-07-12T20:17:49.849Z,101473.38
2018-07-12T20:20:16.804Z,101474.85
2018-07-12T20:22:43.728Z,101473.38
2018-07-12T20:25:10.692Z,101473.13
2018-07-12T20:27:37.613Z,101472.27
2018-07-12T20:30:05.065Z,101471.70
2018-07-12T20:32:31.987Z,101478.14
2018-07-12T20:34:58.893Z,101477.86
2018-07-12T20:37:25.834Z,101479.19
2018-07-12T20:39:52.740Z,101476.27
2018-07-12T20:42:19.681Z,101472.73
2018-07-12T20:44:46.600Z,101470.19
2018-07-12T20:47:13.539Z,101477.92
2018-07-12T20:49:40.459Z,101480.20
2018-07-12T20:52:07.424Z,101487.02
2018-07-12T20:54:34.352Z,101483.36
2018-07-12T20:57:01.269Z,101493.98
2018-07-12T20:59:28.185Z,101492.19
2018-07-12T21:01:55.116Z,101498.44
2018-07-12T21:04:22.048Z,101496.78
2018-07-12T21:06:48.960Z,101493.47
2018-07-12T21:09:15.866Z,101493.84
2018-07-12T21:11:42.768Z,101494.02
2018-07-12T21:14:09.705Z,101497.85
2018-07-12T21:16:36.625Z,101499.07
2018-07-12T21:19:03.573Z,101511.13
2018-07-12T21:21:30.496Z,101519.13
2018-07-12T21:23:57.429Z,101518.89
2018-07-12T21:26:24.337Z,101513.61
2018-07-12T21:28:51.270Z,101516.83
2018-07-12T21:31:18.189Z,101512.75
2018-07-12T21:33:45.121Z,101517.06
2018-07-12T21:36:12.033Z,101516.98
2018-07-12T21:38:38.963Z,101523.38
2018-07-12T21:41:05.899Z,101524.13
2018-07-12T21:43:39.674Z,101520.88
2018-07-12T21:46:08.131Z,101526.84
2018-07-12T21:48:35.076Z,101524.72
2018-07-12T21:51:01.989Z,101525.52
2018-07-12T21:53:28.916Z,101527.67
2018-07-12T21:55:55.929Z,101533.41
2018-07-12T21:58:23.285Z,101533.94
2018-07-12T22:00:51.588Z,101534.22
2018-07-12T22:03:18.616Z,101536.95
2018-07-12T22:05:45.635Z,101546.75
2018-07-12T22:08:16.152Z,101544.39
2018-07-12T22:10:43.964Z,101490.95
2018-07-12T22:13:11.480Z,101550.08
2018-07-12T22:15:38.421Z,101543.64
2018-07-12T22:18:05.677Z,101547.06
2018-07-12T22:20:32.645Z,101543.80
2018-07-12T22:23:04.404Z,101538.56
2018-07-12T22:25:31.857Z,101539.68
2018-07-12T22:27:59.713Z,101532.08
2018-07-12T22:30:27.774Z,101522.34
2018-07-12T22:33:00.160Z,101535.28
2018-07-12T22:35:28.156Z,101532.42
2018-07-12T22:37:59.645Z,101528.31
2018-07-12T22:40:27.946Z,101528.48
2018-07-12T22:42:54.918Z,101525.30
2018-07-12T22:45:21.900Z,101522.09
2018-07-12T22:47:50.150Z,101522.44
2018-07-12T22:50:17.425Z,101519.48
2018-07-12T22:52:44.353Z,101532.33
2018-07-12T22:55:11.281Z,101526.72
2018-07-12T22:57:38.208Z,101526.72
2018-07-12T23:00:05.831Z,101517.16
2018-07-12T23:02:32.745Z,101521.37
2018-07-12T23:04:59.664Z,101522.44
2018-07-12T23:07:26.574Z,101526.49
2018-07-12T23:09:54.232Z,101515.81
2018-07-12T23:12:21.195Z,101525.05
2018-07-12T23:14:48.112Z,101533.10
2018-07-12T23:17:16.300Z,101534.16
2018-07-12T23:19:43.296Z,101524.37
2018-07-12T23:22:10.221Z,101523.09
2018-07-12T23:24:37.215Z,101526.80
2018-07-12T23:27:04.158Z,101529.67
2018-07-12T23:29:31.110Z,101533.27
2018-07-12T23:31:58.033Z,101534.55
2018-07-12T23:34:25.328Z,101532.77
2018-07-12T23:36:52.738Z,101536.88
2018-07-12T23:39:19.692Z,101540.48
2018-07-12T23:41:47.657Z,101546.73
2018-07-12T23:44:14.727Z,101532.22
2018-07-12T23:46:43.067Z,101530.43
2018-07-12T23:49:11.045Z,101528.34
2018-07-12T23:51:39.390Z,101525.95
2018-07-12T23:54:06.553Z,101526.49
2018-07-12T23:56:36.233Z,101527.00
2018-07-12T23:59:03.216Z,101520.55
